createdAt,value
2019-04-06T00:02:27.209Z,8.39
2019-04-06T00:04:55.680Z,8.40
2019-04-06T00:07:24.285Z,8.42
2019-04-06T00:09:52.852Z,8.42
2019-04-06T00:12:21.556Z,8.43
2019-04-06T00:14:50.097Z,8.45
2019-04-06T00:17:18.790Z,8.49
2019-04-06T00:19:47.325Z,8.53
2019-04-06T00:22:15.859Z,8.56
2019-04-06T00:24:44.607Z,8.62
2019-04-06T00:27:13.400Z,8.66
2019-04-06T00:29:42.371Z,8.66
2019-04-06T00:32:12.615Z,8.68
2019-04-06T00:34:41.227Z,8.69
2019-04-06T00:37:09.841Z,8.61
2019-04-06T00:39:38.345Z,8.67
2019-04-06T00:42:07.025Z,8.69
2019-04-06T00:44:35.569Z,8.68
2019-04-06T00:47:04.187Z,8.67
2019-04-06T00:49:32.790Z,8.66
2019-04-06T00:52:07.115Z,8.64
2019-04-06T00:54:35.725Z,8.63
2019-04-06T00:57:04.482Z,8.61
2019-04-06T00:59:33.072Z,8.62
2019-04-06T01:02:01.697Z,8.61
2019-04-06T01:04:30.233Z,8.60
2019-04-06T01:06:58.948Z,8.57
2019-04-06T01:09:27.580Z,8.57
2019-04-06T01:11:57.588Z,8.56
2019-04-06T01:14:26.125Z,8.57
2019-04-06T01:16:54.734Z,8.56
2019-04-06T01:19:23.340Z,8.57
2019-04-06T01:21:51.933Z,8.58
2019-04-06T01:24:20.497Z,8.55
2019-04-06T01:26:49.112Z,8.56
2019-04-06T01:29:17.709Z,8.58
2019-04-06T01:31:46.235Z,8.57
2019-04-06T01:34:14.846Z,8.57
2019-04-06T01:36:43.447Z,8.55
2019-04-06T01:39:11.990Z,8.57
2019-04-06T01:41:40.672Z,8.55
2019-04-06T01:44:09.480Z,8.51
2019-04-06T01:46:38.013Z,8.50
2019-04-06T01:49:06.688Z,8.51
2019-04-06T01:51:35.227Z,8.50
2019-04-06T01:54:03.690Z,8.48
2019-04-06T01:56:32.394Z,8.45
2019-04-06T01:59:00.948Z,8.42
2019-04-06T02:01:31.125Z,8.40
2019-04-06T02:03:59.862Z,8.36
2019-04-06T02:06:28.520Z,8.36
2019-04-06T02:08:57.123Z,8.35
2019-04-06T02:11:25.736Z,8.35
2019-04-06T02:13:54.333Z,8.33
2019-04-06T02:16:22.960Z,8.30
2019-04-06T02:18:51.497Z,8.29
2019-04-06T02:21:20.067Z,8.29
2019-04-06T02:23:48.815Z,8.34
2019-04-06T02:26:17.376Z,8.36
2019-04-06T02:28:45.994Z,8.36
2019-04-06T02:31:18.928Z,8.35
2019-04-06T02:33:57.920Z,8.31
2019-04-06T02:36:44.476Z,8.28
2019-04-06T02:39:30.818Z,8.29
2019-04-06T02:42:07.190Z,8.31
2019-04-06T02:44:35.696Z,8.28
2019-04-06T02:47:04.567Z,8.26
2019-04-06T02:49:33.172Z,8.27
2019-04-06T02:52:01.708Z,8.27
2019-04-06T02:54:30.260Z,8.25
2019-04-06T02:56:58.939Z,8.23
2019-04-06T02:59:27.592Z,8.24
2019-04-06T03:01:56.227Z,8.24
2019-04-06T03:04:24.918Z,8.26
2019-04-06T03:06:53.455Z,8.26
2019-04-06T03:09:22.133Z,8.24
2019-04-06T03:11:50.772Z,8.20
2019-04-06T03:14:19.385Z,8.20
2019-04-06T03:16:48.019Z,8.18
2019-04-06T03:19:16.695Z,8.14
2019-04-06T03:21:45.244Z,8.12
2019-04-06T03:24:13.782Z,8.10
2019-04-06T03:26:42.499Z,8.06
2019-04-06T03:29:12.774Z,8.02
2019-04-06T03:31:41.418Z,8.01
2019-04-06T03:34:10.043Z,7.99
2019-04-06T03:36:38.671Z,7.94
2019-04-06T03:39:07.713Z,7.94
2019-04-06T03:41:36.266Z,7.98
2019-04-06T03:44:05.326Z,8.00
2019-04-06T03:46:34.154Z,7.95
2019-04-06T03:49:02.967Z,7.95
2019-04-06T03:51:31.446Z,7.97
2019-04-06T03:54:01.321Z,7.95
2019-04-06T03:56:29.810Z,7.91
2019-04-06T03:58:58.678Z,7.91
2019-04-06T04:01:27.611Z,7.88
2019-04-06T04:03:57.827Z,7.88
2019-04-06T04:06:26.343Z,7.87
2019-04-06T04:08:54.953Z,7.89
2019-04-06T04:11:23.496Z,7.86
2019-04-06T04:13:53.429Z,7.83
2019-04-06T04:16:22.079Z,7.83
2019-04-06T04:18:50.619Z,7.83
2019-04-06T04:21:19.154Z,7.83
2019-04-06T04:23:47.786Z,7.84
2019-04-06T04:26:16.363Z,7.85
2019-04-06T04:28:44.879Z,7.84
2019-04-06T04:31:13.488Z,7.86
2019-04-06T04:33:42.213Z,7.87
2019-04-06T04:36:10.774Z,7.89
2019-04-06T04:38:39.345Z,7.97
2019-04-06T04:41:07.949Z,8.03
2019-04-06T04:43:36.628Z,8.09
2019-04-06T04:46:05.332Z,8.14
2019-04-06T04:48:33.978Z,8.16
2019-04-06T04:51:02.641Z,8.18
2019-04-06T04:53:31.283Z,8.15
2019-04-06T04:55:59.773Z,8.13
2019-04-06T04:58:28.365Z,8.12
2019-04-06T05:00:56.974Z,8.15
2019-04-06T05:03:25.596Z,8.16
2019-04-06T05:05:54.360Z,8.18
2019-04-06T05:08:23.005Z,8.20
2019-04-06T05:10:51.575Z,8.25
2019-04-06T05:13:20.179Z,8.31
2019-04-06T05:16:11.976Z,8.42
2019-04-06T05:18:42.205Z,8.52
2019-04-06T05:21:11.801Z,8.64
2019-04-06T05:23:40.873Z,8.75
2019-04-06T05:26:09.715Z,8.81
2019-04-06T05:28:38.451Z,8.85
2019-04-06T05:31:08.561Z,8.92
2019-04-06T05:33:37.218Z,9.05
2019-04-06T05:36:06.437Z,9.16
2019-04-06T05:38:35.227Z,9.23
2019-04-06T05:41:04.942Z,9.29
2019-04-06T05:43:33.509Z,9.36
2019-04-06T05:46:02.131Z,9.43
2019-04-06T05:48:30.640Z,9.49
2019-04-06T05:50:59.327Z,9.55
2019-04-06T05:53:28.052Z,9.61
2019-04-06T05:55:56.634Z,9.70
2019-04-06T05:58:25.248Z,9.78
2019-04-06T06:00:53.898Z,9.84
2019-04-06T06:03:22.439Z,9.88
2019-04-06T06:05:51.052Z,9.97
2019-04-06T06:08:19.668Z,10.02
2019-04-06T06:10:48.577Z,10.09
2019-04-06T06:13:17.280Z,10.14
2019-04-06T06:15:45.890Z,10.20
2019-04-06T06:18:25.360Z,10.25
2019-04-06T06:20:44.685Z,10.32
2019-04-06T06:23:13.403Z,10.37
2019-04-06T06:25:42.168Z,10.42
2019-04-06T06:28:15.078Z,10.50
2019-04-06T06:30:41.105Z,10.55
2019-04-06T06:33:10.046Z,10.64
2019-04-06T06:35:39.576Z,10.76
2019-04-06T06:38:08.677Z,10.87
2019-04-06T06:40:37.161Z,10.99
2019-04-06T06:43:05.860Z,11.12
2019-04-06T06:45:34.757Z,11.26
2019-04-06T06:48:03.334Z,11.39
2019-04-06T06:50:34.252Z,11.53
2019-04-06T06:53:03.131Z,11.66
2019-04-06T06:55:31.781Z,11.84
2019-04-06T06:58:00.321Z,12.04
2019-04-06T07:00:28.970Z,12.24
2019-04-06T07:02:57.581Z,12.47
2019-04-06T07:05:26.200Z,12.67
2019-04-06T07:07:54.898Z,12.82
2019-04-06T07:10:23.468Z,12.92
2019-04-06T07:12:52.088Z,13.00
2019-04-06T07:15:20.699Z,13.04
2019-04-06T07:17:49.354Z,13.08
2019-04-06T07:20:18.280Z,13.11
2019-04-06T07:22:48.897Z,13.13
2019-04-06T07:25:17.507Z,13.15
2019-04-06T07:27:45.987Z,13.15
2019-04-06T07:30:14.697Z,13.18
2019-04-06T07:32:43.321Z,13.16
2019-04-06T07:35:12.050Z,13.18
2019-04-06T07:37:40.826Z,13.20
2019-04-06T07:40:09.802Z,13.18
2019-04-06T07:42:38.323Z,13.19
2019-04-06T07:45:10.291Z,13.21
2019-04-06T07:47:39.280Z,13.24
2019-04-06T07:50:09.051Z,13.24
2019-04-06T07:52:37.768Z,13.28
2019-04-06T07:55:09.539Z,13.30
2019-04-06T07:57:38.169Z,13.32
2019-04-06T08:00:10.310Z,13.37
2019-04-06T08:02:38.947Z,13.40
2019-04-06T08:05:08.031Z,13.44
2019-04-06T08:07:36.677Z,13.48
2019-04-06T08:10:07.135Z,13.55
2019-04-06T08:12:35.760Z,13.55
2019-04-06T08:15:06.856Z,13.64
2019-04-06T08:17:35.482Z,13.75
2019-04-06T08:20:08.715Z,13.86
2019-04-06T08:22:37.358Z,13.95
2019-04-06T08:25:08.065Z,14.06
2019-04-06T08:27:36.835Z,14.14
2019-04-06T08:30:12.765Z,14.24
2019-04-06T08:32:41.411Z,14.23
2019-04-06T08:35:10.082Z,14.24
2019-04-06T08:37:38.927Z,14.29
2019-04-06T08:40:08.325Z,14.28
2019-04-06T08:42:37.062Z,14.32
2019-04-06T08:45:07.518Z,14.37
2019-04-06T08:47:38.312Z,14.38
2019-04-06T08:50:08.202Z,14.45
2019-04-06T08:52:36.759Z,14.51
2019-04-06T08:55:07.153Z,14.55
2019-04-06T08:57:36.074Z,14.58
2019-04-06T09:00:07.162Z,14.60
2019-04-06T09:02:36.295Z,14.60
2019-04-06T09:05:10.944Z,14.61
2019-04-06T09:07:40.926Z,14.61
2019-04-06T09:10:09.963Z,14.60
2019-04-06T09:12:38.732Z,14.62
2019-04-06T09:15:10.140Z,14.64
2019-04-06T09:17:38.682Z,14.64
2019-04-06T09:20:08.399Z,14.60
2019-04-06T09:22:37.039Z,14.57
2019-04-06T09:25:07.362Z,14.57
2019-04-06T09:27:36.019Z,14.52
2019-04-06T09:30:07.436Z,14.52
2019-04-06T09:32:35.903Z,14.54
2019-04-06T09:35:05.428Z,14.56
2019-04-06T09:37:34.029Z,14.52
2019-04-06T09:40:02.964Z,14.50
2019-04-06T09:42:31.685Z,14.51
2019-04-06T09:45:17.839Z,14.52
2019-04-06T09:48:00.272Z,14.46
2019-04-06T09:50:39.125Z,14.37
2019-04-06T09:53:18.370Z,14.32
2019-04-06T09:55:51.637Z,14.24
2019-04-06T09:58:38.226Z,14.14
2019-04-06T10:01:14.485Z,14.07
2019-04-06T10:03:59.943Z,13.98
2019-04-06T10:06:45.061Z,13.94
2019-04-06T10:09:15.321Z,13.88
2019-04-06T10:12:04.535Z,13.85
2019-04-06T10:14:53.020Z,13.84
2019-04-06T10:17:32.387Z,13.68
2019-04-06T10:20:11.908Z,13.54
2019-04-06T10:22:54.371Z,13.44
2019-04-06T10:25:24.677Z,13.35
2019-04-06T10:28:00.895Z,13.25
2019-04-06T10:30:31.227Z,13.16
2019-04-06T10:33:07.153Z,13.05
2019-04-06T10:35:48.547Z,12.91
2019-04-06T10:38:27.456Z,12.80
2019-04-06T10:40:57.641Z,12.68
2019-04-06T10:43:39.879Z,12.57
2019-04-06T10:46:22.313Z,12.50
2019-04-06T10:48:52.440Z,12.43
2019-04-06T10:51:22.794Z,12.33
2019-04-06T10:54:07.921Z,12.21
2019-04-06T10:56:44.137Z,12.12
2019-04-06T10:59:30.762Z,11.90
2019-04-06T11:02:04.064Z,11.74
2019-04-06T11:04:34.323Z,11.63
2019-04-06T11:07:21.170Z,11.57
2019-04-06T11:09:54.291Z,11.50
2019-04-06T11:12:36.751Z,11.42
2019-04-06T11:15:24.364Z,11.36
2019-04-06T11:18:09.906Z,11.34
2019-04-06T11:20:44.320Z,11.28
2019-04-06T11:23:20.580Z,11.24
2019-04-06T11:25:50.873Z,11.15
2019-04-06T11:28:21.262Z,11.03
2019-04-06T11:30:51.487Z,10.92
2019-04-06T11:33:22.000Z,10.91
2019-04-06T11:36:10.339Z,10.81
2019-04-06T11:38:49.632Z,10.75
2019-04-06T11:41:22.720Z,10.68
2019-04-06T11:43:58.821Z,10.62
2019-04-06T11:46:35.122Z,10.59
2019-04-06T11:49:08.037Z,10.50
2019-04-06T11:51:47.369Z,10.46
2019-04-06T11:54:20.578Z,10.49
2019-04-06T11:56:56.670Z,10.50
2019-04-06T11:59:28.342Z,10.50
2019-04-06T12:01:58.894Z,10.49
2019-04-06T12:04:29.230Z,10.44
2019-04-06T12:07:15.603Z,10.42
2019-04-06T12:09:48.342Z,10.45
2019-04-06T12:12:35.059Z,10.42
2019-04-06T12:15:07.853Z,10.39
2019-04-06T12:17:57.676Z,10.27
2019-04-06T12:20:28.204Z,10.23
2019-04-06T12:22:58.839Z,10.22
2019-04-06T12:25:38.056Z,10.28
2019-04-06T12:28:23.740Z,10.30
2019-04-06T12:31:09.878Z,10.36
2019-04-06T12:33:56.677Z,10.43
2019-04-06T12:36:29.771Z,10.39
2019-04-06T12:39:16.109Z,10.42
2019-04-06T12:41:46.222Z,10.48
2019-04-06T12:44:32.396Z,10.41
2019-04-06T12:47:19.050Z,10.36
2019-04-06T12:49:58.462Z,10.37
2019-04-06T12:52:31.333Z,10.38
2019-04-06T12:55:13.853Z,10.44
2019-04-06T12:57:44.042Z,10.53
2019-04-06T13:00:30.886Z,10.57
2019-04-06T13:03:01.305Z,10.62
2019-04-06T13:05:43.389Z,10.69
2019-04-06T13:08:16.702Z,10.80
2019-04-06T13:10:58.797Z,10.92
2019-04-06T13:13:41.233Z,10.93
2019-04-06T13:16:14.275Z,10.90
2019-04-06T13:19:02.766Z,10.94
2019-04-06T13:21:49.453Z,10.97
2019-04-06T13:24:23.048Z,11.01
2019-04-06T13:26:53.420Z,11.06
2019-04-06T13:29:26.061Z,11.08
2019-04-06T13:31:59.265Z,11.16
2019-04-06T13:34:44.476Z,11.17
2019-04-06T13:37:23.548Z,11.14
2019-04-06T13:39:53.991Z,11.15
2019-04-06T13:42:30.357Z,11.10
2019-04-06T13:45:03.196Z,11.07
2019-04-06T13:47:33.567Z,11.05
2019-04-06T13:50:09.699Z,11.05
2019-04-06T13:52:45.855Z,11.03
2019-04-06T13:55:31.904Z,11.05
2019-04-06T13:58:08.077Z,11.01
2019-04-06T14:00:44.546Z,10.99
2019-04-06T14:03:23.899Z,10.97
2019-04-06T14:06:10.640Z,10.99
2019-04-06T14:08:40.827Z,10.97
2019-04-06T14:11:14.237Z,10.97
2019-04-06T14:13:47.684Z,10.99
2019-04-06T14:16:34.450Z,10.96
2019-04-06T14:19:04.837Z,10.95
2019-04-06T14:21:44.075Z,10.92
2019-04-06T14:24:17.569Z,10.91
2019-04-06T14:27:00.056Z,10.91
2019-04-06T14:29:48.377Z,10.87
2019-04-06T14:32:35.366Z,10.86
2019-04-06T14:35:23.454Z,10.84
2019-04-06T14:37:53.772Z,10.82
2019-04-06T14:40:40.388Z,10.77
2019-04-06T14:43:16.127Z,10.73
2019-04-06T14:45:49.014Z,10.70
2019-04-06T14:48:35.718Z,10.64
2019-04-06T14:51:21.245Z,10.55
2019-04-06T14:53:51.386Z,10.52
2019-04-06T14:56:28.032Z,10.53
2019-04-06T14:58:59.017Z,10.53
2019-04-06T15:01:56.979Z,10.51
2019-04-06T15:04:19.300Z,10.48
2019-04-06T15:06:49.604Z,10.44
2019-04-06T15:09:20.178Z,10.41
2019-04-06T15:11:59.582Z,10.33
2019-04-06T15:14:36.091Z,10.25
2019-04-06T15:17:09.007Z,10.22
2019-04-06T15:19:54.235Z,10.15
2019-04-06T15:22:27.496Z,10.13
2019-04-06T15:25:16.063Z,10.12
2019-04-06T15:27:54.723Z,10.14
2019-04-06T15:30:24.975Z,10.16
2019-04-06T15:32:55.090Z,10.12
2019-04-06T15:35:34.452Z,10.13
2019-04-06T15:38:04.794Z,10.17
2019-04-06T15:40:38.190Z,10.20
2019-04-06T15:43:14.454Z,10.22
2019-04-06T15:45:47.385Z,10.22
2019-04-06T15:48:17.600Z,10.22
2019-04-06T15:50:53.836Z,10.21
2019-04-06T15:53:36.417Z,10.19
2019-04-06T15:56:12.578Z,10.15
2019-04-06T15:58:55.010Z,10.14
2019-04-06T16:01:25.413Z,10.10
2019-04-06T16:03:55.594Z,10.07
2019-04-06T16:06:25.860Z,10.04
2019-04-06T16:09:14.215Z,10.03
2019-04-06T16:11:56.487Z,10.02
2019-04-06T16:14:35.756Z,9.99
2019-04-06T16:17:22.054Z,9.90
2019-04-06T16:19:55.890Z,9.87
2019-04-06T16:22:26.591Z,9.87
2019-04-06T16:24:59.678Z,9.88
2019-04-06T16:27:32.679Z,9.90
2019-04-06T16:30:05.610Z,9.92
2019-04-06T16:32:47.470Z,9.90
2019-04-06T16:35:29.880Z,9.88
2019-04-06T16:38:18.129Z,9.87
2019-04-06T16:40:51.236Z,9.88
2019-04-06T16:43:34.039Z,9.91
2019-04-06T16:46:16.547Z,9.92
2019-04-06T16:48:52.420Z,9.93
2019-04-06T16:51:22.804Z,9.92
2019-04-06T16:54:09.346Z,9.91
2019-04-06T16:56:45.544Z,9.89
2019-04-06T16:59:15.772Z,9.90
2019-04-06T17:02:02.314Z,9.87
2019-04-06T17:04:35.267Z,9.86
2019-04-06T17:07:08.652Z,9.88
2019-04-06T17:09:44.396Z,9.86
2019-04-06T17:12:15.308Z,9.88
2019-04-06T17:14:48.196Z,9.88
2019-04-06T17:17:34.806Z,9.87
2019-04-06T17:20:12.483Z,9.85
2019-04-06T17:22:45.496Z,9.80
2019-04-06T17:25:21.475Z,9.75
2019-04-06T17:27:52.299Z,9.76
2019-04-06T17:30:31.551Z,9.75
2019-04-06T17:33:18.575Z,9.73
2019-04-06T17:36:05.214Z,9.72
2019-04-06T17:38:51.639Z,9.69
2019-04-06T17:41:21.813Z,9.67
2019-04-06T17:44:03.855Z,9.60
2019-04-06T17:46:34.043Z,9.57
2019-04-06T17:49:06.990Z,9.53
2019-04-06T17:51:37.294Z,9.52
2019-04-06T17:54:07.732Z,9.52
2019-04-06T17:56:46.781Z,9.51
2019-04-06T17:59:32.861Z,9.49
2019-04-06T18:02:09.320Z,9.46
2019-04-06T18:04:39.507Z,9.41
2019-04-06T18:07:15.803Z,9.36
2019-04-06T18:10:02.467Z,9.30
2019-04-06T18:12:35.471Z,9.20
2019-04-06T18:15:06.227Z,9.11
2019-04-06T18:17:34.880Z,9.01
2019-04-06T18:20:04.920Z,8.90
2019-04-06T18:22:34.294Z,8.78
2019-04-06T18:25:03.421Z,8.69
2019-04-06T18:27:32.048Z,8.60
2019-04-06T18:30:01.067Z,8.55
2019-04-06T18:32:59.697Z,8.49
2019-04-06T18:35:19.823Z,8.45
2019-04-06T18:37:52.733Z,8.42
2019-04-06T18:40:22.975Z,8.36
2019-04-06T18:42:52.946Z,8.34
2019-04-06T18:45:21.952Z,8.32
2019-04-06T18:47:50.836Z,8.31
2019-04-06T18:50:20.133Z,8.32
2019-04-06T18:52:48.754Z,8.34
2019-04-06T18:55:17.771Z,8.34
2019-04-06T18:57:46.955Z,8.30
2019-04-06T19:00:17.901Z,8.24
2019-04-06T19:02:46.514Z,8.19
2019-04-06T19:05:16.263Z,8.17
2019-04-06T19:07:44.904Z,8.15
2019-04-06T19:10:13.719Z,8.18
2019-04-06T19:12:42.798Z,8.22
2019-04-06T19:15:13.679Z,8.22
2019-04-06T19:17:42.810Z,8.22
2019-04-06T19:20:12.279Z,8.19
2019-04-06T19:22:41.020Z,8.15
2019-04-06T19:25:10.468Z,8.09
2019-04-06T19:27:39.321Z,8.03
2019-04-06T19:30:10.191Z,7.97
2019-04-06T19:32:39.066Z,7.90
2019-04-06T19:35:08.985Z,7.86
2019-04-06T19:37:37.638Z,7.82
2019-04-06T19:40:07.913Z,7.76
2019-04-06T19:42:36.559Z,7.72
2019-04-06T19:45:08.390Z,7.67
2019-04-06T19:47:37.040Z,7.65
2019-04-06T19:50:08.216Z,7.66
2019-04-06T19:52:37.021Z,7.64
2019-04-06T19:55:07.760Z,7.60
2019-04-06T19:57:36.311Z,7.57
2019-04-06T20:00:06.909Z,7.58
2019-04-06T20:02:35.753Z,7.63
2019-04-06T20:05:07.396Z,7.66
2019-04-06T20:07:35.930Z,7.69
2019-04-06T20:10:06.285Z,7.67
2019-04-06T20:12:34.862Z,7.65
2019-04-06T20:15:04.895Z,7.61
2019-04-06T20:17:33.431Z,7.59
2019-04-06T20:20:02.021Z,7.55
2019-04-06T20:22:30.560Z,7.51
2019-04-06T20:24:59.162Z,7.49
2019-04-06T20:27:28.544Z,7.43
2019-04-06T20:29:57.762Z,7.38
2019-04-06T20:32:26.396Z,7.37
2019-04-06T20:34:54.994Z,7.35
2019-04-06T20:37:23.465Z,7.36
2019-04-06T20:39:52.451Z,7.36
2019-04-06T20:42:21.214Z,7.32
2019-04-06T20:44:49.831Z,7.29
2019-04-06T20:47:18.948Z,7.25
2019-04-06T20:49:47.889Z,7.23
2019-04-06T20:52:16.501Z,7.21
2019-04-06T20:54:45.218Z,7.20
2019-04-06T20:57:14.852Z,7.17
2019-04-06T20:59:43.824Z,7.16
2019-04-06T21:02:12.520Z,7.18
2019-04-06T21:04:41.327Z,7.14
2019-04-06T21:07:09.896Z,7.15
2019-04-06T21:09:38.511Z,7.14
2019-04-06T21:12:07.119Z,7.09
2019-04-06T21:14:36.211Z,7.06
2019-04-06T21:17:04.991Z,7.02
2019-04-06T21:19:34.013Z,6.97
2019-04-06T21:22:03.004Z,6.95
2019-04-06T21:24:31.737Z,6.95
2019-04-06T21:27:00.433Z,6.94
2019-04-06T21:29:29.041Z,6.90
2019-04-06T21:31:57.579Z,6.86
2019-04-06T21:34:26.236Z,6.75
2019-04-06T21:36:56.469Z,6.67
2019-04-06T21:39:25.065Z,6.60
2019-04-06T21:41:54.251Z,6.53
2019-04-06T21:44:23.046Z,6.41
2019-04-06T21:46:51.695Z,6.35
2019-04-06T21:49:20.227Z,6.28
2019-04-06T21:51:48.961Z,6.26
2019-04-06T21:54:17.632Z,6.24
2019-04-06T21:56:46.784Z,6.24
2019-04-06T21:59:16.769Z,6.24
2019-04-06T22:01:46.709Z,6.21
2019-04-06T22:04:23.708Z,6.17
2019-04-06T22:06:46.086Z,6.10
2019-04-06T22:09:15.295Z,6.05
2019-04-06T22:11:43.905Z,6.06
2019-04-06T22:14:12.560Z,6.02
2019-04-06T22:16:41.796Z,5.98
2019-04-06T22:19:11.143Z,5.92
2019-04-06T22:21:39.929Z,5.88
2019-04-06T22:24:09.554Z,5.86
2019-04-06T22:26:38.316Z,5.86
2019-04-06T22:29:06.927Z,5.85
2019-04-06T22:31:35.902Z,5.82
2019-04-06T22:34:04.961Z,5.74
2019-04-06T22:36:33.536Z,5.58
2019-04-06T22:39:02.201Z,5.55
2019-04-06T22:41:31.130Z,5.52
2019-04-06T22:43:59.899Z,5.55
2019-04-06T22:46:28.519Z,5.49
2019-04-06T22:48:57.484Z,5.39
2019-04-06T22:51:26.424Z,5.33
2019-04-06T22:53:55.679Z,5.30
2019-04-06T22:56:24.876Z,5.38
2019-04-06T22:58:53.654Z,5.46
2019-04-06T23:01:24.538Z,5.53
2019-04-06T23:04:06.482Z,5.60
2019-04-06T23:06:36.923Z,5.65
2019-04-06T23:09:08.065Z,5.70
2019-04-06T23:11:36.690Z,5.72
2019-04-06T23:14:05.603Z,5.75
2019-04-06T23:16:34.418Z,5.76
2019-04-06T23:19:03.115Z,5.79
2019-04-06T23:21:31.716Z,5.82
2019-04-06T23:24:03.031Z,5.81
2019-04-06T23:26:30.693Z,5.81
2019-04-06T23:28:59.698Z,5.83
2019-04-06T23:31:28.334Z,5.79
2019-04-06T23:33:57.283Z,5.74
2019-04-06T23:36:26.110Z,5.72
2019-04-06T23:38:54.930Z,5.73
2019-04-06T23:41:23.469Z,5.74
2019-04-06T23:43:52.072Z,5.76
2019-04-06T23:46:20.700Z,5.72
2019-04-06T23:48:49.857Z,5.71
2019-04-06T23:51:18.846Z,5.72
2019-04-06T23:53:48.083Z,5.75
2019-04-06T23:56:17.098Z,5.76
2019-04-06T23:58:47.050Z,5.77
